KLAS

Las Vegas/ Harry Reid International Airport

Airport
ICAO code
KLAS
IATA Code
LAS
Summary
ICAO Region
NAM
ICAO Territory
Location

Las Vegas, Nevada

Serving
Las Vegas
Elevation
2181 ft
Coordinates
36° 5' 8" N , 115° 8' 60" W
KCC
Airport LOS
Parallel Runway Operation
Metar
KLAS 250356Z 23018G31KT 10SM FEW180 BKN220 27/M02 A2964 RMK AO2 PK WND 23034/0339 SLP012 T02721017 $

International airport 5 nm south of downtown Las Vegas, Nevada, USA. Previously known as McCarran International/McCarran Field.

Runways

Designator Length Width Surface Rops
01L/19R 2739 46 CON Yes/Yes
01R/19L 2979 46 ASP Yes/Yes
07R/25L 3208 46 ASP Yes/Yes
07L/25R 4423 46 ASP Yes/Yes

SKYbrary Partners:

Safety knowledge contributed by: